createdAt,value
2022-10-31T00:02:02.177Z,23.10
2022-10-31T00:04:05.031Z,22.23
2022-10-31T00:06:07.180Z,26.10
2022-10-31T00:08:09.130Z,25.03
2022-10-31T00:10:11.386Z,19.38
2022-10-31T00:12:13.215Z,24.88
2022-10-31T00:14:15.346Z,23.37
2022-10-31T00:16:19.989Z,25.35
2022-10-31T00:18:21.831Z,24.85
2022-10-31T00:20:23.687Z,24.30
2022-10-31T00:22:26.118Z,24.25
2022-10-31T00:24:27.915Z,23.83
2022-10-31T00:26:31.268Z,17.67
2022-10-31T00:28:34.412Z,24.08
2022-10-31T00:30:36.234Z,25.45
2022-10-31T00:32:38.027Z,24.85
2022-10-31T00:34:40.129Z,24.37
2022-10-31T00:36:42.027Z,25.20
2022-10-31T00:38:45.111Z,25.17
2022-10-31T00:40:47.340Z,23.45
2022-10-31T00:42:49.203Z,24.52
2022-10-31T00:44:51.070Z,24.23
2022-10-31T00:46:53.226Z,23.57
2022-10-31T00:48:55.080Z,24.17
2022-10-31T00:50:57.751Z,24.85
2022-10-31T00:55:01.718Z,32.80
2022-10-31T00:57:04.104Z,25.35
2022-10-31T00:59:06.265Z,25.77
2022-10-31T01:01:08.333Z,24.92
2022-10-31T01:03:10.281Z,23.98
2022-10-31T01:05:12.827Z,24.17
2022-10-31T01:07:15.162Z,24.23
2022-10-31T01:09:17.131Z,23.45
2022-10-31T01:11:22.188Z,23.45
2022-10-31T01:13:24.286Z,22.67
2022-10-31T01:15:26.168Z,22.50
2022-10-31T01:17:28.327Z,23.33
2022-10-31T01:19:30.173Z,23.30
2022-10-31T01:21:32.030Z,23.63
2022-10-31T01:23:34.988Z,24.38
2022-10-31T01:25:36.794Z,22.45
2022-10-31T01:27:38.783Z,20.35
2022-10-31T01:29:40.880Z,23.17
2022-10-31T01:31:42.673Z,23.85
2022-10-31T01:33:44.728Z,24.13
2022-10-31T01:35:46.861Z,24.27
2022-10-31T01:37:48.659Z,24.58
2022-10-31T01:39:50.539Z,22.52
2022-10-31T01:41:54.360Z,24.25
2022-10-31T01:43:59.131Z,24.85
2022-10-31T01:46:01.166Z,21.85
2022-10-31T01:48:03.550Z,23.27
2022-10-31T01:50:12.455Z,24.58
2022-10-31T01:52:22.294Z,24.60
2022-10-31T01:54:30.395Z,23.48
2022-10-31T01:56:34.635Z,23.42
2022-10-31T01:58:36.939Z,23.80
2022-10-31T02:00:40.657Z,24.08
2022-10-31T02:02:43.864Z,24.63
2022-10-31T02:04:48.534Z,25.58
2022-10-31T02:06:59.601Z,27.70
2022-10-31T02:09:03.446Z,28.65
2022-10-31T02:11:06.352Z,30.02
2022-10-31T02:13:09.609Z,30.45
2022-10-31T02:17:14.045Z,29.67
2022-10-31T02:19:44.957Z,28.33
2022-10-31T02:22:05.178Z,28.42
2022-10-31T02:25:02.715Z,29.02
2022-10-31T02:27:10.392Z,28.08
2022-10-31T02:29:15.137Z,27.35
2022-10-31T02:31:29.926Z,27.08
2022-10-31T02:33:41.297Z,27.02
2022-10-31T02:35:50.814Z,26.83
2022-10-31T02:38:03.793Z,26.67
2022-10-31T02:42:31.571Z,27.17
2022-10-31T02:44:56.150Z,26.85
2022-10-31T02:47:09.960Z,26.08
2022-10-31T02:49:51.530Z,26.75
2022-10-31T02:51:53.526Z,27.38
2022-10-31T02:53:55.694Z,27.63
2022-10-31T02:56:01.303Z,26.85
2022-10-31T02:58:12.217Z,27.13
2022-10-31T03:00:14.757Z,26.70
2022-10-31T03:02:31.573Z,27.23
2022-10-31T03:04:53.780Z,28.42
2022-10-31T03:07:44.428Z,29.05
2022-10-31T03:10:05.555Z,29.60
2022-10-31T03:12:43.142Z,29.23
2022-10-31T03:15:20.655Z,29.67
2022-10-31T03:17:29.429Z,28.58
2022-10-31T03:19:38.783Z,29.67
2022-10-31T03:21:47.463Z,30.30
2022-10-31T03:23:52.596Z,28.98
2022-10-31T03:25:55.903Z,28.25
2022-10-31T03:28:01.000Z,27.40
2022-10-31T03:30:06.599Z,27.63
2022-10-31T03:32:20.836Z,26.08
2022-10-31T03:34:24.368Z,27.85
2022-10-31T03:36:28.353Z,27.17
2022-10-31T03:38:30.826Z,27.23
2022-10-31T03:40:36.156Z,25.98
2022-10-31T03:42:42.359Z,26.30
2022-10-31T03:44:51.089Z,26.38
2022-10-31T03:46:52.998Z,27.92
2022-10-31T03:48:55.452Z,26.55
2022-10-31T03:51:10.483Z,26.52
2022-10-31T03:53:21.721Z,24.85
2022-10-31T03:55:40.329Z,26.50
2022-10-31T03:57:49.071Z,25.60
2022-10-31T04:00:04.713Z,25.08
2022-10-31T04:02:11.799Z,24.60
2022-10-31T04:04:15.181Z,25.80
2022-10-31T04:06:20.092Z,26.00
2022-10-31T04:08:27.474Z,26.27
2022-10-31T04:10:32.945Z,25.42
2022-10-31T04:12:37.066Z,26.75
2022-10-31T04:14:41.475Z,27.95
2022-10-31T04:16:44.967Z,30.30
2022-10-31T04:18:46.954Z,27.08
2022-10-31T04:20:51.888Z,26.95
2022-10-31T04:22:53.811Z,29.35
2022-10-31T04:24:55.590Z,28.38
2022-10-31T04:26:57.877Z,27.53
2022-10-31T04:28:59.677Z,29.35
2022-10-31T04:31:01.976Z,28.85
2022-10-31T04:33:04.150Z,30.15
2022-10-31T04:35:06.484Z,30.15
2022-10-31T04:37:08.326Z,29.25
2022-10-31T04:39:10.692Z,28.92
2022-10-31T04:41:12.481Z,29.45
2022-10-31T04:43:14.485Z,28.08
2022-10-31T04:45:20.107Z,28.48
2022-10-31T04:47:23.608Z,27.92
2022-10-31T04:49:25.392Z,27.05
2022-10-31T04:51:27.583Z,27.17
2022-10-31T04:53:30.170Z,26.80
2022-10-31T04:55:32.479Z,26.95
2022-10-31T04:57:42.748Z,26.42
2022-10-31T04:59:44.650Z,26.38
2022-10-31T05:01:46.539Z,25.70
2022-10-31T05:03:48.852Z,25.77
2022-10-31T05:05:50.833Z,25.88
2022-10-31T05:07:53.390Z,25.90
2022-10-31T05:09:55.492Z,26.40
2022-10-31T05:11:57.324Z,25.67
2022-10-31T05:13:59.169Z,28.88
2022-10-31T05:16:01.254Z,26.65
2022-10-31T05:18:03.566Z,26.30
2022-10-31T05:20:06.251Z,25.98
2022-10-31T05:22:08.458Z,26.27
2022-10-31T05:24:10.421Z,25.23
2022-10-31T05:26:12.316Z,27.95
2022-10-31T05:28:14.419Z,30.75
2022-10-31T05:30:19.704Z,32.92
2022-10-31T05:32:21.559Z,31.98
2022-10-31T05:34:23.679Z,36.50
2022-10-31T05:36:25.493Z,37.17
2022-10-31T05:38:27.422Z,30.42
2022-10-31T05:40:30.059Z,33.13
2022-10-31T05:42:31.958Z,34.38
2022-10-31T05:44:33.836Z,34.65
2022-10-31T05:46:35.981Z,34.15
2022-10-31T05:48:37.822Z,32.50
2022-10-31T05:50:39.642Z,32.38
2022-10-31T05:52:41.781Z,34.72
2022-10-31T05:54:43.689Z,39.67
2022-10-31T05:56:45.563Z,39.90
2022-10-31T05:58:47.728Z,40.10
2022-10-31T06:00:49.599Z,42.85
2022-10-31T06:02:59.996Z,45.45
2022-10-31T06:05:03.442Z,45.40
2022-10-31T06:07:05.356Z,44.72
2022-10-31T06:09:07.242Z,46.92
2022-10-31T06:11:09.383Z,46.65
2022-10-31T06:13:11.629Z,45.00
2022-10-31T06:15:13.820Z,45.78
2022-10-31T06:17:16.252Z,43.95
2022-10-31T06:19:18.109Z,40.97
2022-10-31T06:21:20.327Z,41.33
2022-10-31T06:23:22.471Z,40.30
2022-10-31T06:25:24.855Z,39.67
2022-10-31T06:27:27.555Z,39.17
2022-10-31T06:31:31.418Z,37.20
2022-10-31T06:33:35.076Z,34.30
2022-10-31T06:35:37.189Z,31.55
2022-10-31T06:37:39.134Z,32.47
2022-10-31T06:39:41.178Z,33.22
2022-10-31T06:41:43.330Z,31.40
2022-10-31T06:43:48.330Z,31.17
2022-10-31T06:45:50.321Z,29.85
2022-10-31T06:48:15.408Z,30.42
2022-10-31T06:50:16.332Z,28.38
2022-10-31T06:52:18.296Z,30.47
2022-10-31T06:54:20.416Z,29.80
2022-10-31T06:56:22.457Z,28.23
2022-10-31T06:58:24.532Z,27.45
2022-10-31T07:00:29.482Z,27.52
2022-10-31T07:02:31.374Z,26.80
2022-10-31T07:04:33.522Z,24.98
2022-10-31T07:06:35.623Z,24.67
2022-10-31T07:08:37.510Z,24.63
2022-10-31T07:10:42.020Z,24.90
2022-10-31T07:12:44.253Z,23.23
2022-10-31T07:14:46.235Z,23.92
2022-10-31T07:16:52.116Z,28.27
2022-10-31T07:18:54.240Z,30.73
2022-10-31T07:20:56.155Z,31.63
2022-10-31T07:22:58.606Z,32.53
2022-10-31T07:25:01.018Z,29.88
2022-10-31T07:27:02.900Z,31.77
2022-10-31T07:29:04.902Z,31.43
2022-10-31T07:31:07.356Z,31.40
2022-10-31T07:33:09.575Z,33.58
2022-10-31T07:35:18.089Z,33.20
2022-10-31T07:37:20.285Z,32.55
2022-10-31T07:39:22.148Z,33.07
2022-10-31T07:41:24.457Z,33.83
2022-10-31T07:43:27.184Z,33.92
2022-10-31T07:45:32.360Z,33.17
2022-10-31T07:47:51.736Z,32.50
2022-10-31T07:49:53.951Z,32.30
2022-10-31T07:51:56.278Z,32.10
2022-10-31T07:53:58.261Z,31.98
2022-10-31T07:56:00.514Z,32.30
2022-10-31T07:58:08.330Z,31.50
2022-10-31T08:00:11.237Z,33.42
2022-10-31T08:02:13.430Z,32.53
2022-10-31T08:04:15.310Z,32.53
2022-10-31T08:06:17.148Z,31.97
2022-10-31T08:08:19.311Z,32.25
2022-10-31T08:10:21.962Z,32.40
2022-10-31T08:12:23.866Z,31.58
2022-10-31T08:14:26.026Z,32.42
2022-10-31T08:16:28.382Z,31.83
2022-10-31T08:18:30.870Z,31.58
2022-10-31T08:22:37.543Z,31.30
2022-10-31T08:24:41.662Z,30.85
2022-10-31T08:26:43.969Z,30.17
2022-10-31T08:28:46.070Z,29.02
2022-10-31T08:30:48.440Z,30.70
2022-10-31T08:35:21.934Z,29.48
2022-10-31T08:37:25.230Z,28.37
2022-10-31T08:39:27.342Z,28.50
2022-10-31T08:41:29.638Z,28.92
2022-10-31T08:43:31.432Z,28.10
2022-10-31T08:45:35.121Z,28.75
2022-10-31T08:47:36.980Z,26.05
2022-10-31T08:49:39.054Z,26.70
2022-10-31T08:51:41.238Z,27.58
2022-10-31T08:53:43.594Z,27.63
2022-10-31T08:55:46.833Z,27.42
2022-10-31T08:57:49.496Z,24.48
2022-10-31T08:59:51.920Z,23.55
2022-10-31T09:01:53.989Z,23.17
2022-10-31T09:03:57.459Z,24.52
2022-10-31T09:06:01.967Z,25.40
2022-10-31T09:08:14.832Z,25.27
2022-10-31T09:10:18.520Z,26.20
2022-10-31T09:12:20.641Z,23.23
2022-10-31T09:14:22.462Z,23.67
2022-10-31T09:16:24.662Z,23.88
2022-10-31T09:18:29.019Z,24.60
2022-10-31T09:20:32.414Z,26.02
2022-10-31T09:22:35.736Z,27.50
2022-10-31T09:24:37.818Z,26.33
2022-10-31T09:26:39.629Z,24.53
2022-10-31T09:28:41.862Z,25.40
2022-10-31T09:30:43.806Z,25.98
2022-10-31T09:32:45.654Z,26.38
2022-10-31T09:34:49.131Z,24.20
2022-10-31T09:36:54.652Z,24.38
2022-10-31T09:38:56.538Z,25.58
2022-10-31T09:41:20.284Z,25.15
2022-10-31T09:46:15.185Z,23.63
2022-10-31T09:48:43.755Z,23.67
2022-10-31T09:50:50.885Z,23.98
2022-10-31T09:53:04.168Z,24.80
2022-10-31T09:55:20.244Z,25.42
2022-10-31T09:57:34.040Z,25.95
2022-10-31T09:59:40.058Z,26.17
2022-10-31T10:02:25.899Z,27.90
2022-10-31T10:04:46.709Z,27.02
2022-10-31T10:06:52.348Z,24.98
2022-10-31T10:08:54.855Z,25.85
2022-10-31T10:11:17.661Z,27.10
2022-10-31T10:13:41.707Z,25.92
2022-10-31T10:16:04.976Z,26.35
2022-10-31T10:18:37.602Z,27.88
2022-10-31T10:21:05.099Z,28.52
2022-10-31T10:23:47.195Z,27.30
2022-10-31T10:26:00.238Z,28.15
2022-10-31T10:28:13.089Z,29.73
2022-10-31T10:30:21.969Z,30.48
2022-10-31T10:32:31.566Z,29.10
2022-10-31T10:34:40.619Z,29.50
2022-10-31T10:36:47.804Z,30.15
2022-10-31T10:38:54.796Z,30.52
2022-10-31T10:40:58.884Z,31.30
2022-10-31T10:43:32.915Z,30.30
2022-10-31T10:45:53.958Z,33.05
2022-10-31T10:48:11.614Z,32.50
2022-10-31T10:50:13.459Z,31.63
2022-10-31T10:52:50.880Z,32.20
2022-10-31T10:55:16.303Z,34.00
2022-10-31T10:57:37.239Z,33.20
2022-10-31T10:59:39.303Z,32.75
2022-10-31T11:01:42.840Z,33.77
2022-10-31T11:03:44.960Z,31.88
2022-10-31T11:06:02.914Z,32.55
2022-10-31T11:08:07.002Z,30.23
2022-10-31T11:10:17.610Z,29.95
2022-10-31T11:12:32.624Z,32.08
2022-10-31T11:14:43.635Z,30.60
2022-10-31T11:16:48.924Z,29.73
2022-10-31T11:18:51.028Z,30.85
2022-10-31T11:23:27.152Z,30.75
2022-10-31T11:25:29.103Z,33.65
2022-10-31T11:27:31.084Z,31.45
2022-10-31T11:29:33.362Z,32.33
2022-10-31T11:31:36.561Z,31.27
2022-10-31T11:35:41.382Z,32.00
2022-10-31T11:37:45.535Z,29.92
2022-10-31T11:39:57.202Z,31.02
2022-10-31T11:42:08.512Z,28.65
2022-10-31T11:44:21.458Z,29.65
2022-10-31T11:46:26.807Z,29.55
2022-10-31T11:48:29.185Z,29.00
2022-10-31T11:50:41.231Z,30.20
2022-10-31T11:52:43.275Z,29.20
2022-10-31T11:54:57.079Z,29.58
2022-10-31T11:56:59.203Z,28.52
2022-10-31T11:59:05.293Z,29.67
2022-10-31T12:01:31.417Z,29.92
2022-10-31T12:03:43.578Z,27.92
2022-10-31T12:05:49.679Z,28.08
2022-10-31T12:07:53.466Z,29.33
2022-10-31T12:09:56.174Z,28.13
2022-10-31T12:12:36.671Z,27.38
2022-10-31T12:15:09.673Z,28.10
2022-10-31T12:17:23.557Z,28.77
2022-10-31T12:19:51.255Z,29.50
2022-10-31T12:22:35.945Z,28.55
2022-10-31T12:25:08.924Z,27.70
2022-10-31T12:27:22.430Z,27.95
2022-10-31T12:32:05.099Z,28.17
2022-10-31T12:34:26.018Z,28.05
2022-10-31T12:36:30.941Z,28.20
2022-10-31T12:39:14.943Z,27.98
2022-10-31T12:41:49.657Z,28.08
2022-10-31T12:43:58.696Z,27.55
2022-10-31T12:46:02.972Z,27.50
2022-10-31T12:48:29.935Z,28.17
2022-10-31T12:50:56.374Z,27.20
2022-10-31T12:53:13.332Z,28.60
2022-10-31T12:55:48.853Z,29.00
2022-10-31T12:57:59.412Z,28.38
2022-10-31T13:00:13.096Z,27.48
2022-10-31T13:02:36.714Z,27.00
2022-10-31T13:05:04.724Z,25.55
2022-10-31T13:07:13.275Z,25.15
2022-10-31T13:09:20.732Z,27.27
2022-10-31T13:11:44.655Z,29.00
2022-10-31T13:13:53.566Z,31.58
2022-10-31T13:16:02.507Z,32.45
2022-10-31T13:18:14.000Z,33.10
2022-10-31T13:20:42.033Z,32.05
2022-10-31T13:22:47.954Z,32.60
2022-10-31T13:25:00.484Z,30.95
2022-10-31T13:27:12.321Z,32.50
2022-10-31T13:29:32.692Z,34.25
2022-10-31T13:31:34.995Z,33.53
2022-10-31T13:33:44.299Z,32.15
2022-10-31T13:35:52.135Z,33.10
2022-10-31T13:38:01.572Z,32.97
2022-10-31T13:40:06.933Z,33.15
2022-10-31T13:42:24.479Z,33.90
2022-10-31T13:44:28.903Z,34.38
2022-10-31T13:46:34.118Z,35.20
2022-10-31T13:48:40.261Z,35.20
2022-10-31T13:50:44.270Z,34.20
2022-10-31T13:52:46.615Z,35.63
2022-10-31T13:54:56.880Z,35.97
2022-10-31T13:56:59.261Z,35.50
2022-10-31T13:59:04.190Z,34.22
2022-10-31T14:01:12.242Z,35.13
2022-10-31T14:03:36.263Z,34.95
2022-10-31T14:05:43.470Z,35.53
2022-10-31T14:07:47.586Z,34.40
2022-10-31T14:09:52.314Z,35.53
2022-10-31T14:11:56.185Z,34.10
2022-10-31T14:13:59.898Z,35.83
2022-10-31T14:16:06.116Z,36.47
2022-10-31T14:18:39.158Z,36.13
2022-10-31T14:20:42.957Z,37.88
2022-10-31T14:22:45.000Z,35.55
2022-10-31T14:24:47.347Z,37.80
2022-10-31T14:27:01.884Z,36.83
2022-10-31T14:29:16.065Z,37.88
2022-10-31T14:31:39.698Z,37.47
2022-10-31T14:33:43.589Z,37.90
2022-10-31T14:35:54.916Z,37.63
2022-10-31T14:38:16.179Z,39.92
2022-10-31T14:40:32.669Z,39.97
2022-10-31T14:43:05.540Z,40.35
2022-10-31T14:45:37.226Z,40.95
2022-10-31T14:47:48.119Z,40.58
2022-10-31T14:49:58.925Z,41.08
2022-10-31T14:52:02.380Z,43.63
2022-10-31T14:54:07.338Z,41.70
2022-10-31T14:56:12.445Z,41.90
2022-10-31T14:58:21.501Z,41.78
2022-10-31T15:00:25.732Z,39.95
2022-10-31T15:02:53.621Z,37.03
2022-10-31T15:04:56.759Z,37.38
2022-10-31T15:07:13.635Z,36.95
2022-10-31T15:09:33.299Z,38.03
2022-10-31T15:11:39.140Z,38.17
2022-10-31T15:13:50.096Z,38.80
2022-10-31T15:15:55.703Z,37.47
2022-10-31T15:18:04.713Z,41.60
2022-10-31T15:20:07.387Z,42.05
2022-10-31T15:22:15.429Z,40.50
2022-10-31T15:24:19.596Z,42.92
2022-10-31T15:26:24.589Z,42.58
2022-10-31T15:28:27.224Z,43.80
2022-10-31T15:32:31.878Z,45.58
2022-10-31T15:34:33.669Z,44.95
2022-10-31T15:36:38.633Z,46.23
2022-10-31T15:38:40.623Z,46.60
2022-10-31T15:40:56.564Z,47.10
2022-10-31T15:43:02.974Z,49.08
2022-10-31T15:45:10.530Z,49.67
2022-10-31T15:47:21.684Z,48.33
2022-10-31T15:49:35.509Z,47.92
2022-10-31T15:51:38.991Z,47.47
2022-10-31T15:53:53.614Z,47.85
2022-10-31T15:55:59.215Z,49.42
2022-10-31T15:58:16.294Z,51.00
2022-10-31T16:00:41.729Z,49.83
2022-10-31T16:02:43.847Z,49.22
2022-10-31T16:04:55.951Z,51.60
2022-10-31T16:07:23.471Z,50.97
2022-10-31T16:09:26.478Z,52.85
2022-10-31T16:11:38.102Z,50.92
2022-10-31T16:13:58.042Z,52.63
2022-10-31T16:16:32.964Z,53.75
2022-10-31T16:18:27.138Z,50.60
2022-10-31T16:20:33.001Z,53.58
2022-10-31T16:22:39.817Z,52.55
2022-10-31T16:24:49.258Z,51.45
2022-10-31T16:26:53.978Z,53.72
2022-10-31T16:29:05.711Z,52.55
2022-10-31T16:31:15.297Z,51.25
2022-10-31T16:33:31.926Z,52.72
2022-10-31T16:35:37.710Z,49.83
2022-10-31T16:37:42.978Z,50.95
2022-10-31T16:39:44.891Z,52.03
2022-10-31T16:41:54.250Z,52.28
2022-10-31T16:43:56.186Z,50.25
2022-10-31T16:45:58.050Z,49.95
2022-10-31T16:48:10.616Z,50.10
2022-10-31T16:50:15.274Z,53.20
2022-10-31T16:52:18.447Z,54.55
2022-10-31T16:54:21.129Z,51.28
2022-10-31T16:56:31.065Z,50.67
2022-10-31T16:58:34.716Z,51.50
2022-10-31T17:00:38.334Z,51.25
2022-10-31T17:02:40.647Z,51.00
2022-10-31T17:04:43.874Z,52.85
2022-10-31T17:06:48.734Z,51.30
2022-10-31T17:08:50.599Z,47.05
2022-10-31T17:10:54.748Z,45.72
2022-10-31T17:12:58.231Z,45.28
2022-10-31T17:15:00.674Z,47.40
2022-10-31T17:17:02.527Z,46.75
2022-10-31T17:19:05.052Z,48.85
2022-10-31T17:21:07.265Z,48.42
2022-10-31T17:23:11.386Z,46.92
2022-10-31T17:25:17.469Z,47.40
2022-10-31T17:27:19.537Z,48.92
2022-10-31T17:29:21.820Z,50.10
2022-10-31T17:31:29.608Z,52.25
2022-10-31T17:33:31.718Z,51.58
2022-10-31T17:35:33.631Z,50.38
2022-10-31T17:37:36.480Z,51.90
2022-10-31T17:39:39.962Z,50.40
2022-10-31T17:41:41.729Z,48.13
2022-10-31T17:43:47.435Z,50.10
2022-10-31T17:45:49.502Z,48.05
2022-10-31T17:47:53.151Z,46.55
2022-10-31T17:49:55.389Z,49.67
2022-10-31T17:51:57.241Z,49.25
2022-10-31T17:53:59.076Z,47.55
2022-10-31T17:56:02.366Z,45.67
2022-10-31T18:00:09.629Z,43.15
2022-10-31T18:02:12.608Z,43.42
2022-10-31T18:04:15.104Z,42.60
2022-10-31T18:06:17.531Z,44.75
2022-10-31T18:08:19.786Z,43.38
2022-10-31T18:10:21.755Z,44.22
2022-10-31T18:12:24.156Z,44.83
2022-10-31T18:14:26.540Z,42.85
2022-10-31T18:16:29.419Z,41.63
2022-10-31T18:18:31.325Z,38.50
2022-10-31T18:20:33.719Z,38.50
2022-10-31T18:22:35.670Z,41.67
2022-10-31T18:24:39.260Z,38.65
2022-10-31T18:26:41.490Z,39.25
2022-10-31T18:30:46.480Z,40.28
2022-10-31T18:32:53.170Z,39.28
2022-10-31T18:34:55.127Z,42.15
2022-10-31T18:36:57.007Z,37.95
2022-10-31T18:38:59.326Z,39.30
2022-10-31T18:41:01.346Z,40.33
2022-10-31T18:43:11.679Z,39.78
2022-10-31T18:45:32.616Z,38.53
2022-10-31T18:47:37.499Z,38.50
2022-10-31T18:49:39.634Z,41.38
2022-10-31T18:51:41.821Z,39.38
2022-10-31T18:53:53.317Z,39.33
2022-10-31T18:55:55.141Z,37.60
2022-10-31T18:57:57.327Z,37.23
2022-10-31T18:59:59.188Z,36.55
2022-10-31T19:02:01.380Z,35.93
2022-10-31T19:04:03.931Z,39.75
2022-10-31T19:06:07.682Z,37.90
2022-10-31T19:08:09.751Z,38.45
2022-10-31T19:10:12.027Z,40.58
2022-10-31T19:12:13.981Z,38.50
2022-10-31T19:14:15.931Z,40.38
2022-10-31T19:16:18.453Z,39.22
2022-10-31T19:18:20.723Z,38.33
2022-10-31T19:20:24.403Z,40.63
2022-10-31T19:22:26.638Z,38.83
2022-10-31T19:24:29.143Z,40.63
2022-10-31T19:26:33.237Z,39.75
2022-10-31T19:28:37.801Z,39.03
2022-10-31T19:30:39.661Z,40.60
2022-10-31T19:32:41.614Z,40.10
2022-10-31T19:34:45.007Z,38.83
2022-10-31T19:36:47.044Z,40.05
2022-10-31T19:38:51.376Z,40.20
2022-10-31T19:41:00.104Z,38.65
2022-10-31T19:43:01.930Z,39.33
2022-10-31T19:45:05.004Z,41.78
2022-10-31T19:47:07.228Z,40.95
2022-10-31T19:49:09.953Z,41.97
2022-10-31T19:51:14.151Z,40.15
2022-10-31T19:53:16.921Z,38.63
2022-10-31T19:55:18.699Z,37.45
2022-10-31T19:57:35.819Z,41.40
2022-10-31T19:59:42.608Z,39.03
2022-10-31T20:01:44.497Z,40.47
2022-10-31T20:03:47.243Z,40.05
2022-10-31T20:07:52.153Z,40.90
2022-10-31T20:09:54.070Z,39.13
2022-10-31T20:11:57.072Z,41.17
2022-10-31T20:13:59.978Z,41.03
2022-10-31T20:16:10.362Z,40.97
2022-10-31T20:18:12.488Z,39.00
2022-10-31T20:20:14.452Z,40.72
2022-10-31T20:22:16.259Z,40.10
2022-10-31T20:24:18.451Z,37.83
2022-10-31T20:26:20.580Z,38.85
2022-10-31T20:30:26.448Z,39.58
2022-10-31T20:32:28.260Z,40.47
2022-10-31T20:34:30.254Z,40.55
2022-10-31T20:36:32.462Z,41.55
2022-10-31T20:38:37.940Z,40.28
2022-10-31T20:40:39.894Z,39.47
2022-10-31T20:42:42.111Z,38.67
2022-10-31T20:44:44.417Z,38.67
2022-10-31T20:46:46.282Z,39.63
2022-10-31T20:48:50.071Z,40.67
2022-10-31T20:50:59.415Z,38.97
2022-10-31T20:53:01.736Z,38.88
2022-10-31T20:57:07.610Z,37.90
2022-10-31T20:59:09.586Z,38.67
2022-10-31T21:01:23.317Z,41.17
2022-10-31T21:03:26.443Z,43.50
2022-10-31T21:05:28.343Z,41.20
2022-10-31T21:07:34.909Z,38.70
2022-10-31T21:09:36.898Z,40.03
2022-10-31T21:11:38.763Z,40.55
2022-10-31T21:13:42.871Z,40.88
2022-10-31T21:15:45.034Z,40.10
2022-10-31T21:17:49.335Z,42.33
2022-10-31T21:19:51.435Z,45.15
2022-10-31T21:21:54.818Z,42.25
2022-10-31T21:23:59.009Z,43.60
2022-10-31T21:26:09.390Z,44.58
2022-10-31T21:28:12.196Z,43.25
2022-10-31T21:30:14.071Z,42.00
2022-10-31T21:32:16.230Z,40.75
2022-10-31T21:34:18.152Z,41.03
2022-10-31T21:36:20.305Z,40.42
2022-10-31T21:38:22.459Z,40.35
2022-10-31T21:40:27.790Z,41.75
2022-10-31T21:42:29.798Z,41.55
2022-10-31T21:44:33.788Z,38.88
2022-10-31T21:46:37.550Z,41.20
2022-10-31T21:48:43.482Z,40.65
2022-10-31T21:50:45.620Z,40.83
2022-10-31T21:52:47.426Z,41.60
2022-10-31T21:54:49.298Z,41.25
2022-10-31T21:56:51.820Z,42.72
2022-10-31T21:58:54.382Z,43.67
2022-10-31T22:01:01.685Z,40.55
2022-10-31T22:03:03.997Z,40.53
2022-10-31T22:05:06.083Z,39.03
2022-10-31T22:07:08.195Z,39.90
2022-10-31T22:09:13.627Z,39.72
2022-10-31T22:11:17.548Z,40.65
2022-10-31T22:13:19.425Z,38.60
2022-10-31T22:15:23.716Z,41.35
2022-10-31T22:17:25.558Z,40.08
2022-10-31T22:19:27.414Z,40.58
2022-10-31T22:21:29.611Z,40.20
2022-10-31T22:23:31.762Z,39.20
2022-10-31T22:25:37.480Z,38.28
2022-10-31T22:27:39.636Z,38.85
2022-10-31T22:29:41.614Z,37.07
2022-10-31T22:31:46.106Z,38.30
2022-10-31T22:33:48.890Z,37.63
2022-10-31T22:35:50.729Z,37.97
2022-10-31T22:37:52.682Z,37.80
2022-10-31T22:39:54.833Z,39.42
2022-10-31T22:41:56.621Z,36.33
2022-10-31T22:43:59.184Z,39.20
2022-10-31T22:46:05.363Z,37.63
2022-10-31T22:48:07.223Z,37.80
2022-10-31T22:50:09.238Z,40.03
2022-10-31T22:52:11.389Z,39.08
2022-10-31T22:54:16.542Z,38.50
2022-10-31T22:56:21.147Z,37.70
2022-10-31T22:58:23.258Z,37.28
2022-10-31T23:00:25.817Z,38.28
2022-10-31T23:02:28.456Z,36.05
2022-10-31T23:06:33.228Z,35.83
2022-10-31T23:08:37.748Z,37.70
2022-10-31T23:10:42.225Z,39.00
2022-10-31T23:13:02.602Z,39.08
2022-10-31T23:15:05.060Z,37.00
2022-10-31T23:17:07.205Z,38.38
2022-10-31T23:19:10.161Z,37.08
2022-10-31T23:23:36.574Z,36.55
2022-10-31T23:25:57.214Z,42.25
2022-10-31T23:27:58.994Z,36.50
2022-10-31T23:30:01.516Z,35.43
2022-10-31T23:32:05.044Z,35.85
2022-10-31T23:34:06.867Z,35.60
2022-10-31T23:36:09.115Z,37.13
2022-10-31T23:38:11.013Z,34.70
2022-10-31T23:40:12.787Z,37.88
2022-10-31T23:42:15.730Z,36.40
2022-10-31T23:44:17.931Z,34.60
2022-10-31T23:46:19.900Z,33.90
2022-10-31T23:48:22.213Z,35.55
2022-10-31T23:50:24.035Z,37.37
2022-10-31T23:52:25.799Z,34.13
2022-10-31T23:54:28.322Z,34.17
2022-10-31T23:56:30.323Z,36.30
2022-10-31T23:58:32.111Z,33.67
